Time;durP1;ratioP1;P1;durP2;ratioP2;P2;SDS_P1;SDS_P2;PMS_P1;PMS_P2;Temp;Humidity;BMP_temperature;BMP_pressure;BME280_temperature;BME280_humidity;BME280_pressure;Samples;Min_cycle;Max_cycle;Signal;HPM_P1;HPM_P2
2021/08/06 00:01:03;;;;;;;8.20;2.37;;;18.90;99.90;;;;;;5077712;28;20517;-85
2021/08/06 00:03:34;;;;;;;8.20;2.10;;;18.80;99.90;;;;;;5096594;28;20454;-84
2021/08/06 00:08:50;;;;;;;7.50;2.40;;;18.80;99.90;;;;;;5093787;28;20575;-84
2021/08/06 00:11:19;;;;;;;7.40;1.93;;;18.80;99.90;;;;;;5074865;28;20519;-86
2021/08/06 00:13:45;;;;;;;8.43;2.60;;;18.70;99.90;;;;;;5083469;28;20460;-84
2021/08/06 00:16:13;;;;;;;8.50;2.60;;;18.70;99.90;;;;;;5095220;28;20517;-84
2021/08/06 00:18:44;;;;;;;9.60;2.40;;;18.70;99.90;;;;;;5094575;28;20442;-84
2021/08/06 00:21:13;;;;;;;7.50;2.30;;;18.70;99.90;;;;;;5075326;28;20514;-84
2021/08/06 00:23:51;;;;;;;7.80;2.53;;;18.60;99.90;;;;;;5074425;28;20458;-85
2021/08/06 00:26:24;;;;;;;7.90;2.40;;;18.60;99.90;;;;;;5074910;28;20459;-85
2021/08/06 00:28:54;;;;;;;7.67;2.40;;;18.60;99.90;;;;;;5074055;28;20455;-85
2021/08/06 00:31:21;;;;;;;11.00;2.77;;;18.60;99.90;;;;;;5074822;28;20553;-86
2021/08/06 00:33:51;;;;;;;7.00;1.90;;;18.50;99.90;;;;;;5074572;28;20455;-85
2021/08/06 00:36:23;;;;;;;7.63;2.13;;;18.50;99.90;;;;;;5074776;28;20465;-84
2021/08/06 00:38:53;;;;;;;7.87;2.17;;;18.50;99.90;;;;;;5074118;28;20454;-85
2021/08/06 00:41:20;;;;;;;7.70;2.20;;;18.50;99.90;;;;;;5073464;28;20619;-85
2021/08/06 00:43:49;;;;;;;7.33;2.00;;;18.40;99.90;;;;;;5074587;28;20464;-85
2021/08/06 00:46:29;;;;;;;9.17;2.90;;;18.40;99.90;;;;;;5074701;28;20505;-84
2021/08/06 00:49:03;;;;;;;9.30;2.70;;;18.40;99.90;;;;;;5073464;28;20450;-85
2021/08/06 00:51:36;;;;;;;7.77;2.70;;;18.40;99.90;;;;;;5073856;28;20489;-85
2021/08/06 00:54:10;;;;;;;7.47;2.33;;;18.50;99.90;;;;;;5075524;28;20520;-85
2021/08/06 00:56:42;;;;;;;7.20;2.30;;;18.50;99.90;;;;;;5076290;28;20545;-85
2021/08/06 00:59:15;;;;;;;7.90;2.20;;;18.50;99.90;;;;;;5073834;28;20449;-84
2021/08/06 01:01:51;;;;;;;8.10;2.80;;;18.50;99.90;;;;;;5074736;28;20997;-84
2021/08/06 01:04:51;;;;;;;9.27;2.30;;;18.40;99.90;;;;;;5074580;28;20983;-85
2021/08/06 01:07:31;;;;;;;7.57;2.67;;;18.50;99.90;;;;;;5074399;28;20959;-84
2021/08/06 01:15:55;;;;;;;7.90;2.90;;;18.60;99.90;;;;;;5075838;28;20449;-85
2021/08/06 01:18:36;;;;;;;11.20;3.57;;;18.60;99.90;;;;;;5076276;28;20503;-85
2021/08/06 01:21:24;;;;;;;9.00;3.13;;;18.60;99.90;;;;;;5081558;28;20497;-86
2021/08/06 01:24:04;;;;;;;8.00;2.90;;;18.50;99.90;;;;;;5075529;28;20430;-85
2021/08/06 01:26:37;;;;;;;7.60;2.50;;;18.50;99.90;;;;;;5074803;28;20965;-84
2021/08/06 01:29:10;;;;;;;10.77;2.60;;;18.50;99.90;;;;;;5075329;28;20809;-84
2021/08/06 01:31:52;;;;;;;8.20;2.90;;;18.50;99.90;;;;;;5075917;28;20474;-85
2021/08/06 01:34:29;;;;;;;8.23;2.60;;;18.50;99.90;;;;;;5077501;28;20538;-84
2021/08/06 01:37:02;;;;;;;9.30;2.63;;;18.50;99.90;;;;;;5074022;28;20925;-85
2021/08/06 01:39:33;;;;;;;8.70;2.80;;;18.60;99.90;;;;;;5075040;28;20472;-85
2021/08/06 01:42:09;;;;;;;7.70;2.73;;;18.60;99.90;;;;;;5074838;28;20489;-86
2021/08/06 01:44:47;;;;;;;8.30;3.00;;;18.60;99.90;;;;;;5076795;28;20461;-85
2021/08/06 01:47:18;;;;;;;7.80;2.70;;;18.60;99.90;;;;;;5075654;28;20485;-85
2021/08/06 01:49:50;;;;;;;7.13;2.17;;;18.60;99.90;;;;;;5078120;28;20458;-85
2021/08/06 01:52:26;;;;;;;7.60;2.50;;;18.60;99.90;;;;;;5077696;28;20481;-86
2021/08/06 01:55:02;;;;;;;7.03;2.17;;;18.50;99.90;;;;;;5077369;28;20571;-86
2021/08/06 01:57:43;;;;;;;7.27;2.23;;;18.60;99.90;;;;;;5078976;28;20442;-87
2021/08/06 02:00:25;;;;;;;8.67;2.50;;;18.60;99.90;;;;;;5079051;28;20468;-86
2021/08/06 02:02:53;;;;;;;7.20;2.40;;;18.60;99.90;;;;;;5079934;28;20431;-85
2021/08/06 02:05:26;;;;;;;6.90;2.07;;;18.60;99.90;;;;;;5096422;28;20474;-84
2021/08/06 02:08:23;;;;;;;7.80;3.00;;;18.60;99.90;;;;;;5098918;28;20459;-85
2021/08/06 02:10:59;;;;;;;8.60;2.10;;;18.60;99.90;;;;;;5094835;28;20540;-86
2021/08/06 02:13:54;;;;;;;7.70;2.17;;;18.60;99.90;;;;;;5099254;28;20460;-85
2021/08/06 02:16:26;;;;;;;7.37;2.50;;;18.50;99.90;;;;;;5058146;28;20459;-87
2021/08/06 02:19:03;;;;;;;8.20;2.77;;;18.50;99.90;;;;;;5057700;28;20459;-85
2021/08/06 02:21:33;;;;;;;9.07;2.77;;;18.60;99.90;;;;;;5056589;28;20566;-86
2021/08/06 02:24:10;;;;;;;8.80;2.70;;;18.60;99.90;;;;;;5059908;28;20439;-86
2021/08/06 02:26:40;;;;;;;7.43;2.50;;;18.50;99.90;;;;;;5076515;28;20469;-85
2021/08/06 02:29:12;;;;;;;10.03;2.60;;;18.50;99.90;;;;;;5076814;28;20806;-85
2021/08/06 02:31:41;;;;;;;6.73;1.93;;;18.50;99.90;;;;;;5076507;28;20469;-85
2021/08/06 02:34:09;;;;;;;7.10;2.60;;;18.50;99.90;;;;;;5084465;28;20957;-88
2021/08/06 02:36:52;;;;;;;7.40;2.30;;;18.50;99.90;;;;;;5077757;28;20481;-86
2021/08/06 02:39:28;;;;;;;7.20;2.60;;;18.40;99.90;;;;;;5076323;28;20488;-85
2021/08/06 02:42:16;;;;;;;6.57;2.10;;;18.40;99.90;;;;;;5076577;28;20490;-86
2021/08/06 02:44:48;;;;;;;8.10;2.33;;;18.30;99.90;;;;;;5076627;28;20468;-85
2021/08/06 02:47:18;;;;;;;7.10;2.37;;;18.30;99.90;;;;;;5076483;28;20436;-85
2021/08/06 02:49:59;;;;;;;6.70;2.20;;;18.20;99.90;;;;;;5076319;28;20539;-86
2021/08/06 02:52:26;;;;;;;7.20;2.40;;;18.10;99.90;;;;;;5076749;28;20510;-85
2021/08/06 02:54:58;;;;;;;7.23;2.23;;;18.10;99.90;;;;;;5075918;28;20460;-86
2021/08/06 02:57:27;;;;;;;6.57;2.00;;;18.00;99.90;;;;;;5074276;28;20461;-86
2021/08/06 02:59:55;;;;;;;8.13;2.37;;;18.00;99.90;;;;;;5074465;28;20591;-86
2021/08/06 03:02:27;;;;;;;7.30;2.13;;;18.10;99.90;;;;;;5075849;28;20515;-86
2021/08/06 03:04:59;;;;;;;6.90;2.13;;;18.00;99.90;;;;;;5074742;28;20446;-85
2021/08/06 03:08:03;;;;;;;8.40;2.30;;;18.00;99.90;;;;;;5075912;28;20462;-85
2021/08/06 03:10:39;;;;;;;7.50;1.97;;;18.00;99.90;;;;;;5075735;28;21009;-85
2021/08/06 03:13:09;;;;;;;7.37;2.33;;;18.00;99.90;;;;;;5077651;28;20466;-85
2021/08/06 03:15:51;;;;;;;7.13;2.40;;;17.90;99.90;;;;;;5078626;28;20485;-84
2021/08/06 03:18:30;;;;;;;7.10;2.10;;;17.90;99.90;;;;;;5075229;28;20467;-85
2021/08/06 03:20:59;;;;;;;7.50;2.57;;;17.90;99.90;;;;;;5075641;28;20484;-86
2021/08/06 03:23:35;;;;;;;8.23;2.40;;;17.90;99.90;;;;;;5075140;28;20466;-85
2021/08/06 03:26:11;;;;;;;7.47;2.37;;;17.90;99.90;;;;;;5074439;28;20461;-86
2021/08/06 03:28:38;;;;;;;8.70;2.70;;;17.90;99.90;;;;;;5077420;28;20981;-86
2021/08/06 03:31:22;;;;;;;11.60;2.53;;;17.90;99.90;;;;;;5086806;28;20505;-85
2021/08/06 03:33:57;;;;;;;7.57;2.47;;;17.90;99.90;;;;;;5078374;28;20970;-86
2021/08/06 03:36:29;;;;;;;8.50;2.40;;;17.80;99.90;;;;;;5077629;28;20475;-85
2021/08/06 03:39:01;;;;;;;7.60;2.47;;;17.70;99.90;;;;;;5078019;28;20465;-85
2021/08/06 03:41:31;;;;;;;7.17;2.50;;;17.80;99.90;;;;;;5079018;28;20475;-85
2021/08/06 03:43:59;;;;;;;7.40;2.63;;;17.90;99.90;;;;;;5079677;28;20603;-86
2021/08/06 03:46:42;;;;;;;7.40;2.40;;;17.90;99.90;;;;;;5076492;28;20461;-85
2021/08/06 03:49:12;;;;;;;8.93;2.40;;;18.00;99.90;;;;;;5076680;28;20493;-85
2021/08/06 03:51:39;;;;;;;11.07;2.90;;;18.00;99.90;;;;;;5076634;28;20567;-85
2021/08/06 03:54:07;;;;;;;8.27;2.60;;;18.00;99.90;;;;;;5079395;28;20449;-86
2021/08/06 03:56:34;;;;;;;7.70;2.80;;;18.00;99.90;;;;;;5077681;28;20449;-85
2021/08/06 03:59:01;;;;;;;8.40;2.50;;;18.00;99.90;;;;;;5076965;28;20480;-85
2021/08/06 04:01:29;;;;;;;7.33;2.67;;;18.00;99.90;;;;;;5079296;28;20582;-83
2021/08/06 04:03:56;;;;;;;8.57;2.50;;;18.10;99.90;;;;;;5078401;28;20914;-81
2021/08/06 04:06:23;;;;;;;7.67;2.87;;;18.10;99.90;;;;;;5078487;28;20498;-82
2021/08/06 04:08:50;;;;;;;8.97;2.70;;;18.10;99.90;;;;;;5077403;28;20458;-82
2021/08/06 04:11:16;;;;;;;12.20;2.60;;;18.20;99.90;;;;;;5077573;28;20847;-82
2021/08/06 04:13:43;;;;;;;7.97;2.60;;;18.10;99.90;;;;;;5076449;28;21021;-81
2021/08/06 04:16:10;;;;;;;7.13;2.30;;;18.10;99.90;;;;;;5076698;28;21018;-82
2021/08/06 04:18:38;;;;;;;7.50;2.87;;;18.10;99.90;;;;;;5077572;28;20472;-82
2021/08/06 04:21:05;;;;;;;6.80;2.30;;;18.00;99.90;;;;;;5075687;28;20480;-81
2021/08/06 04:23:32;;;;;;;8.67;3.17;;;18.00;99.90;;;;;;5079954;28;20594;-83
2021/08/06 04:25:59;;;;;;;7.10;2.43;;;18.10;99.90;;;;;;5078644;28;20481;-84
2021/08/06 04:28:25;;;;;;;7.97;2.67;;;18.00;99.90;;;;;;5075953;28;20457;-85
2021/08/06 04:30:52;;;;;;;8.07;2.60;;;18.00;99.90;;;;;;5075142;28;20474;-85
2021/08/06 04:33:19;;;;;;;6.87;2.23;;;18.00;99.90;;;;;;5075326;28;20453;-85
2021/08/06 04:35:47;;;;;;;6.90;2.37;;;18.10;99.90;;;;;;5075038;28;20604;-84
2021/08/06 04:38:14;;;;;;;8.40;2.33;;;18.20;99.90;;;;;;5078704;28;20444;-82
2021/08/06 04:40:41;;;;;;;7.90;2.60;;;18.20;99.90;;;;;;5078795;28;20475;-83
2021/08/06 04:43:07;;;;;;;7.40;2.50;;;18.30;99.90;;;;;;5075584;28;20495;-84
2021/08/06 04:45:34;;;;;;;8.00;2.40;;;18.30;99.90;;;;;;5074762;28;20461;-83
2021/08/06 04:48:03;;;;;;;7.40;2.10;;;18.30;99.90;;;;;;5074858;28;21053;-83
2021/08/06 04:50:31;;;;;;;6.90;2.23;;;18.30;99.90;;;;;;5103413;22;20481;-88
2021/08/06 04:53:00;;;;;;;6.47;2.13;;;18.40;99.90;;;;;;5057878;28;20454;-84
2021/08/06 04:55:28;;;;;;;6.93;2.03;;;18.40;99.90;;;;;;5074769;28;20454;-84
2021/08/06 04:57:54;;;;;;;7.20;2.47;;;18.40;99.90;;;;;;5091237;28;20509;-84
2021/08/06 05:00:21;;;;;;;7.00;2.37;;;18.30;99.90;;;;;;5092590;28;20474;-84
2021/08/06 05:02:48;;;;;;;7.43;2.40;;;18.30;99.90;;;;;;5089831;28;20548;-84
2021/08/06 05:05:15;;;;;;;7.40;2.70;;;18.40;99.90;;;;;;5064875;28;20466;-84
2021/08/06 05:07:42;;;;;;;7.80;2.97;;;18.40;99.90;;;;;;5055205;28;20846;-84
2021/08/06 05:10:10;;;;;;;7.13;2.27;;;18.50;99.90;;;;;;5053575;28;20843;-85
2021/08/06 05:12:37;;;;;;;7.23;2.43;;;18.40;99.90;;;;;;5056080;28;20466;-84
2021/08/06 05:15:04;;;;;;;7.30;2.50;;;18.40;99.90;;;;;;5065927;28;20536;-84
2021/08/06 05:17:31;;;;;;;7.27;2.63;;;18.30;99.90;;;;;;5078071;28;20450;-85
2021/08/06 05:19:58;;;;;;;7.10;2.37;;;18.30;99.90;;;;;;5078504;28;20897;-84
2021/08/06 05:22:25;;;;;;;8.40;3.53;;;18.30;99.90;;;;;;5078354;28;20497;-85
2021/08/06 05:24:51;;;;;;;7.47;2.23;;;18.30;99.90;;;;;;5072564;28;20549;-85
2021/08/06 05:27:20;;;;;;;8.30;2.40;;;18.30;99.90;;;;;;5060859;28;20966;-84
2021/08/06 05:29:46;;;;;;;6.60;2.40;;;18.40;99.90;;;;;;5061195;28;20550;-84
2021/08/06 05:32:13;;;;;;;7.50;2.70;;;18.40;99.90;;;;;;5064296;28;20469;-84
2021/08/06 05:34:40;;;;;;;8.20;2.80;;;18.40;99.90;;;;;;5070897;28;20564;-85
2021/08/06 05:37:07;;;;;;;7.30;2.20;;;18.40;99.90;;;;;;5085857;28;20464;-84
2021/08/06 05:39:34;;;;;;;7.10;2.77;;;18.50;99.90;;;;;;5084260;28;20445;-85
2021/08/06 05:42:00;;;;;;;7.83;2.50;;;18.40;99.90;;;;;;5085080;28;20868;-84
2021/08/06 05:44:29;;;;;;;10.33;2.57;;;18.50;99.90;;;;;;5081975;28;20462;-85
2021/08/06 05:46:55;;;;;;;10.17;2.47;;;18.60;99.90;;;;;;5065086;28;20446;-83
2021/08/06 05:49:22;;;;;;;7.70;2.40;;;18.60;99.90;;;;;;5064159;28;20451;-84
2021/08/06 05:51:49;;;;;;;7.20;2.73;;;18.70;99.90;;;;;;5064800;28;20555;-84
2021/08/06 05:54:16;;;;;;;7.30;2.27;;;18.70;99.90;;;;;;5066885;28;20518;-84
2021/08/06 05:56:43;;;;;;;9.00;2.60;;;18.70;99.90;;;;;;5085179;28;20466;-83
2021/08/06 05:59:09;;;;;;;8.73;2.60;;;18.60;99.90;;;;;;5085523;28;20460;-84
2021/08/06 06:01:38;;;;;;;7.20;2.50;;;18.60;99.90;;;;;;5077156;28;20565;-84
2021/08/06 06:04:05;;;;;;;8.43;2.80;;;18.60;99.90;;;;;;5071320;28;20451;-85
2021/08/06 06:06:33;;;;;;;8.97;2.47;;;18.70;99.90;;;;;;5075102;28;20453;-84
2021/08/06 06:09:00;;;;;;;8.30;2.80;;;18.70;99.90;;;;;;5074945;28;20445;-84
2021/08/06 06:11:27;;;;;;;8.40;2.57;;;18.70;99.90;;;;;;5077194;28;20489;-84
2021/08/06 06:13:56;;;;;;;7.53;2.10;;;18.70;99.90;;;;;;5076699;28;20441;-84
2021/08/06 06:16:23;;;;;;;7.30;2.50;;;18.70;99.90;;;;;;5073513;28;20493;-84
2021/08/06 06:18:52;;;;;;;8.07;2.57;;;18.80;99.90;;;;;;5069258;28;20455;-84
2021/08/06 06:21:19;;;;;;;7.20;2.60;;;18.80;99.90;;;;;;5071381;28;20456;-84
2021/08/06 06:23:45;;;;;;;6.90;2.10;;;18.90;99.90;;;;;;5081021;28;20483;-84
2021/08/06 06:26:12;;;;;;;6.80;2.20;;;19.00;99.90;;;;;;5067224;28;20459;-83
2021/08/06 06:28:43;;;;;;;7.83;2.43;;;18.90;99.90;;;;;;5063408;28;20546;-83
2021/08/06 06:31:10;;;;;;;7.43;2.17;;;18.90;99.90;;;;;;5076270;28;20840;-84
2021/08/06 06:33:37;;;;;;;8.20;2.57;;;18.90;99.90;;;;;;5069854;28;20518;-84
2021/08/06 06:36:06;;;;;;;7.10;2.50;;;19.00;99.90;;;;;;5082195;28;20448;-83
2021/08/06 06:38:33;;;;;;;7.60;2.40;;;19.00;99.90;;;;;;5063846;28;20443;-84
2021/08/06 06:40:59;;;;;;;9.20;2.50;;;19.00;99.90;;;;;;5070648;28;20556;-83
2021/08/06 06:43:26;;;;;;;7.03;2.10;;;19.00;99.90;;;;;;5068794;28;20496;-84
2021/08/06 06:45:53;;;;;;;7.30;2.17;;;19.00;99.90;;;;;;5065746;28;20481;-84
2021/08/06 06:48:24;;;;;;;7.20;2.20;;;18.90;99.90;;;;;;5064977;28;20459;-84
2021/08/06 06:50:51;;;;;;;6.80;2.10;;;18.90;99.90;;;;;;5057626;28;20487;-84
2021/08/06 06:53:19;;;;;;;7.30;2.23;;;19.00;99.90;;;;;;5065066;28;20533;-83
2021/08/06 06:55:46;;;;;;;7.17;2.00;;;19.00;99.90;;;;;;5066021;28;20479;-84
2021/08/06 06:58:13;;;;;;;7.00;2.10;;;19.00;99.90;;;;;;5062988;28;20448;-83
2021/08/06 07:00:40;;;;;;;7.93;2.07;;;19.10;99.90;;;;;;5058079;28;20501;-84
2021/08/06 07:03:07;;;;;;;6.87;2.10;;;19.10;99.90;;;;;;5078365;28;20581;-83
2021/08/06 07:05:34;;;;;;;6.37;1.77;;;19.20;99.90;;;;;;5063106;28;20891;-84
2021/08/06 07:08:02;;;;;;;8.43;2.20;;;19.30;99.90;;;;;;5066485;28;20823;-83
2021/08/06 07:10:30;;;;;;;6.87;1.97;;;19.20;99.90;;;;;;5068645;28;20884;-83
2021/08/06 07:12:58;;;;;;;6.90;2.23;;;19.30;99.90;;;;;;5059775;28;20444;-83
2021/08/06 07:15:25;;;;;;;6.70;2.10;;;19.30;99.90;;;;;;5061761;28;20443;-83
2021/08/06 07:17:52;;;;;;;7.17;2.03;;;19.30;99.90;;;;;;5063695;28;20444;-83
2021/08/06 07:20:20;;;;;;;6.10;2.00;;;19.40;99.90;;;;;;5068308;28;20447;-83
2021/08/06 07:22:48;;;;;;;6.90;2.10;;;19.40;99.90;;;;;;5060591;28;20487;-83
2021/08/06 07:25:16;;;;;;;6.97;2.00;;;19.30;99.90;;;;;;5062019;28;20454;-84
2021/08/06 07:27:45;;;;;;;6.10;1.63;;;19.30;99.90;;;;;;5066632;28;20525;-84
2021/08/06 07:30:14;;;;;;;6.07;1.80;;;19.10;99.90;;;;;;5064769;28;20448;-83
2021/08/06 07:32:41;;;;;;;6.80;2.03;;;19.30;99.90;;;;;;5064467;28;20460;-84
2021/08/06 07:35:09;;;;;;;7.53;2.03;;;19.20;99.90;;;;;;5067722;28;20435;-83
2021/08/06 07:37:36;;;;;;;9.30;2.10;;;19.30;99.90;;;;;;5071708;28;20451;-84
2021/08/06 07:40:04;;;;;;;7.00;1.97;;;19.30;99.90;;;;;;5062563;28;20550;-83
2021/08/06 07:42:31;;;;;;;7.60;2.53;;;19.20;99.90;;;;;;5066044;28;20498;-83
2021/08/06 07:44:59;;;;;;;6.90;2.10;;;19.20;99.90;;;;;;5092782;28;20473;-83
2021/08/06 07:47:26;;;;;;;6.33;1.83;;;19.20;99.90;;;;;;5078393;28;20447;-83
2021/08/06 07:49:53;;;;;;;7.57;2.50;;;19.20;99.90;;;;;;5073938;28;20482;-84
2021/08/06 07:52:20;;;;;;;6.60;2.00;;;19.30;99.90;;;;;;5065041;28;20486;-84
2021/08/06 07:54:47;;;;;;;6.40;1.63;;;19.30;99.90;;;;;;5072134;28;20452;-84
2021/08/06 07:57:15;;;;;;;7.17;1.93;;;19.40;99.90;;;;;;5060342;28;20470;-83
2021/08/06 07:59:41;;;;;;;6.20;1.73;;;19.40;99.90;;;;;;5063862;28;20451;-84
2021/08/06 08:02:10;;;;;;;6.60;2.00;;;19.50;99.90;;;;;;5049274;28;20472;-84
2021/08/06 08:04:37;;;;;;;7.33;1.80;;;19.50;99.90;;;;;;5053971;28;20570;-84
2021/08/06 08:07:04;;;;;;;7.73;1.70;;;19.60;99.90;;;;;;5054714;28;20448;-84
2021/08/06 08:09:31;;;;;;;11.13;2.13;;;19.60;99.90;;;;;;5062303;28;20463;-84
2021/08/06 08:12:04;;;;;;;6.20;1.80;;;19.60;99.90;;;;;;5064986;28;20471;-82
2021/08/06 08:14:34;;;;;;;7.53;2.07;;;19.70;99.90;;;;;;5060106;28;20452;-83
2021/08/06 08:17:01;;;;;;;7.93;2.27;;;19.70;99.90;;;;;;5067112;28;20471;-83
2021/08/06 08:19:29;;;;;;;6.33;1.67;;;19.80;99.90;;;;;;5072670;28;20481;-85
2021/08/06 08:21:56;;;;;;;7.63;1.90;;;20.00;99.90;;;;;;5058846;28;20463;-85
2021/08/06 08:24:23;;;;;;;7.40;2.77;;;20.20;99.90;;;;;;5057483;28;20483;-83
2021/08/06 08:26:50;;;;;;;9.50;1.87;;;20.30;99.90;;;;;;5061604;28;20451;-82
2021/08/06 08:29:16;;;;;;;6.07;1.43;;;20.20;99.90;;;;;;5071082;28;20507;-84
2021/08/06 08:31:43;;;;;;;6.20;1.77;;;20.20;99.90;;;;;;5069491;28;20468;-83
2021/08/06 08:34:10;;;;;;;6.50;1.67;;;20.40;99.90;;;;;;5073170;28;20542;-84
2021/08/06 08:36:38;;;;;;;6.70;1.90;;;20.60;99.90;;;;;;5067155;28;20462;-83
2021/08/06 08:39:06;;;;;;;7.90;2.00;;;20.70;99.90;;;;;;5059451;28;20498;-84
2021/08/06 08:41:33;;;;;;;6.40;1.80;;;20.80;99.90;;;;;;5077441;28;20475;-83
2021/08/06 08:44:00;;;;;;;6.50;1.97;;;20.80;99.90;;;;;;5070482;28;20493;-84
2021/08/06 08:46:30;;;;;;;7.53;1.97;;;20.80;99.90;;;;;;5063931;28;20528;-83
2021/08/06 08:48:58;;;;;;;6.80;1.83;;;20.80;99.90;;;;;;5061101;28;20455;-83
2021/08/06 08:51:26;;;;;;;8.53;2.00;;;20.60;99.90;;;;;;5079373;28;20479;-83
2021/08/06 08:53:55;;;;;;;7.03;1.80;;;20.60;99.90;;;;;;5063963;28;20459;-83
2021/08/06 08:56:22;;;;;;;7.83;1.63;;;20.50;99.90;;;;;;5062432;28;20515;-83
2021/08/06 08:58:49;;;;;;;7.33;1.77;;;20.40;99.90;;;;;;5062784;28;20451;-83
2021/08/06 09:01:16;;;;;;;7.27;1.73;;;20.30;99.90;;;;;;5062671;28;20537;-84
2021/08/06 09:03:46;;;;;;;6.83;1.67;;;20.30;99.90;;;;;;5073031;28;20500;-83
2021/08/06 09:06:13;;;;;;;8.73;1.90;;;20.20;99.90;;;;;;5076058;28;20459;-84
2021/08/06 09:08:40;;;;;;;11.17;2.83;;;20.20;99.90;;;;;;5063343;28;20454;-83
2021/08/06 09:11:26;;;;;;;8.47;2.80;;;20.10;99.90;;;;;;5067875;28;20482;-84
2021/08/06 09:13:53;;;;;;;8.60;2.67;;;19.80;99.90;;;;;;5083321;28;20469;-83
2021/08/06 09:16:21;;;;;;;9.13;2.93;;;19.60;99.90;;;;;;5082553;28;21012;-83
2021/08/06 09:18:48;;;;;;;9.43;3.33;;;19.60;99.90;;;;;;5079925;28;20969;-84
2021/08/06 09:21:23;;;;;;;8.97;3.57;;;19.50;99.90;;;;;;5072897;28;20468;-84
2021/08/06 09:23:52;;;;;;;7.73;3.30;;;19.60;99.90;;;;;;5070296;28;20478;-84
2021/08/06 09:26:40;;;;;;;7.60;3.60;;;19.50;99.90;;;;;;5080130;28;20443;-84
2021/08/06 09:29:09;;;;;;;9.43;3.30;;;19.60;99.90;;;;;;5079170;28;20468;-83
2021/08/06 09:31:38;;;;;;;7.40;3.07;;;19.60;99.90;;;;;;5075635;28;20563;-84
2021/08/06 09:34:13;;;;;;;8.30;2.07;;;19.60;99.90;;;;;;5060602;28;20459;-84
2021/08/06 09:37:06;;;;;;;7.30;2.57;;;19.50;99.90;;;;;;5064830;28;20454;-84
2021/08/06 09:39:37;;;;;;;11.93;3.40;;;19.40;99.90;;;;;;5080915;28;20493;-84
2021/08/06 09:42:07;;;;;;;9.73;3.17;;;19.20;99.90;;;;;;5078309;28;20550;-83
2021/08/06 09:44:34;;;;;;;7.50;2.60;;;19.20;99.90;;;;;;5077595;28;20860;-84
2021/08/06 09:47:18;;;;;;;8.67;2.67;;;19.20;99.90;;;;;;5073913;28;20834;-83
2021/08/06 09:49:46;;;;;;;7.93;2.40;;;19.30;99.90;;;;;;5061108;28;20480;-84
2021/08/06 09:52:13;;;;;;;7.13;2.60;;;19.30;99.90;;;;;;5061733;28;20473;-84
2021/08/06 09:54:40;;;;;;;8.50;2.10;;;19.50;99.90;;;;;;5080516;28;20449;-84
2021/08/06 09:57:12;;;;;;;8.53;2.23;;;19.50;99.90;;;;;;5081607;28;20451;-84
2021/08/06 09:59:39;;;;;;;8.67;2.30;;;19.60;99.90;;;;;;5081537;28;20469;-83
2021/08/06 10:02:17;;;;;;;7.00;2.30;;;19.70;99.90;;;;;;5071119;28;20565;-83
2021/08/06 10:04:46;;;;;;;7.67;2.60;;;19.80;99.90;;;;;;5075782;28;21129;-83
2021/08/06 10:07:15;;;;;;;7.00;1.93;;;20.30;99.90;;;;;;5063948;28;20527;-84
2021/08/06 10:09:42;;;;;;;9.33;1.90;;;20.40;99.90;;;;;;5063080;28;20447;-83
2021/08/06 10:12:10;;;;;;;9.43;2.07;;;20.20;99.90;;;;;;5068878;28;20486;-83
2021/08/06 10:14:37;;;;;;;6.50;2.17;;;20.30;99.90;;;;;;5090950;28;20447;-83
2021/08/06 10:17:04;;;;;;;7.43;2.00;;;20.40;99.90;;;;;;5071801;28;20522;-83
2021/08/06 10:19:31;;;;;;;7.23;1.77;;;20.50;99.90;;;;;;5062099;28;20479;-83
2021/08/06 10:22:00;;;;;;;10.50;2.33;;;20.50;99.90;;;;;;5063416;28;20480;-84
2021/08/06 10:24:28;;;;;;;8.00;1.80;;;20.70;99.90;;;;;;5063115;28;20529;-83
2021/08/06 10:26:56;;;;;;;8.17;2.43;;;20.80;99.90;;;;;;5064838;28;20527;-84
2021/08/06 10:29:26;;;;;;;6.67;1.67;;;20.70;99.90;;;;;;5070386;28;20531;-82
2021/08/06 10:32:11;;;;;;;7.10;1.70;;;20.70;99.90;;;;;;5074308;28;20466;-84
2021/08/06 10:35:06;;;;;;;8.77;1.53;;;20.70;99.90;;;;;;5064790;28;20463;-83
2021/08/06 10:37:54;;;;;;;7.63;1.70;;;20.60;99.90;;;;;;5067955;28;20457;-83
2021/08/06 10:44:02;;;;;;;8.17;2.23;;;20.50;99.90;;;;;;5080692;28;20502;-84
2021/08/06 10:46:57;;;;;;;8.80;2.37;;;20.80;99.90;;;;;;5067916;28;20451;-83
2021/08/06 10:49:24;;;;;;;8.40;2.27;;;20.90;99.90;;;;;;5080352;28;20451;-83
2021/08/06 10:52:12;;;;;;;8.37;1.90;;;20.80;99.90;;;;;;5073622;28;20474;-85
2021/08/06 10:54:39;;;;;;;10.40;2.03;;;21.10;99.90;;;;;;5053733;28;20464;-83
2021/08/06 10:57:22;;;;;;;7.23;2.40;;;21.20;99.90;;;;;;5053362;28;20531;-84
2021/08/06 10:59:50;;;;;;;9.53;2.13;;;21.40;99.90;;;;;;5053795;28;20454;-84
2021/08/06 11:02:44;;;;;;;7.50;1.90;;;21.40;99.90;;;;;;5053015;28;20472;-84
2021/08/06 11:05:36;;;;;;;9.50;2.10;;;21.50;99.90;;;;;;5053672;28;20515;-85
2021/08/06 11:08:39;;;;;;;7.63;1.80;;;21.40;99.90;;;;;;5053914;28;20447;-86
2021/08/06 11:11:05;;;;;;;8.90;2.40;;;21.70;99.90;;;;;;5060168;28;20481;-85
2021/08/06 11:13:53;;;;;;;10.17;2.87;;;22.10;99.90;;;;;;5053203;28;20440;-86
2021/08/06 11:16:21;;;;;;;6.67;1.97;;;22.40;99.90;;;;;;5053019;28;20509;-85
2021/08/06 11:18:49;;;;;;;7.60;2.27;;;22.70;99.90;;;;;;5052541;28;20455;-85
2021/08/06 11:21:19;;;;;;;9.80;2.17;;;22.80;99.90;;;;;;5053035;28;20585;-85
2021/08/06 11:23:55;;;;;;;9.07;2.03;;;22.90;99.90;;;;;;5069630;28;20482;-85
2021/08/06 11:26:23;;;;;;;8.83;1.90;;;22.80;99.90;;;;;;5072600;28;20439;-85
2021/08/06 11:28:50;;;;;;;9.50;1.87;;;22.90;99.90;;;;;;5072531;28;20498;-84
2021/08/06 11:31:18;;;;;;;9.97;2.37;;;23.00;99.90;;;;;;5071321;28;20466;-85
2021/08/06 11:33:56;;;;;;;9.20;2.10;;;23.20;99.90;;;;;;5061602;28;20531;-84
2021/08/06 11:36:25;;;;;;;9.00;2.00;;;23.20;99.90;;;;;;5032763;28;20462;-85
2021/08/06 11:38:54;;;;;;;8.60;1.80;;;22.80;99.90;;;;;;5032418;28;20544;-84
2021/08/06 11:41:21;;;;;;;9.30;2.23;;;22.20;99.90;;;;;;5032596;28;20541;-85
2021/08/06 11:43:48;;;;;;;7.73;1.70;;;21.80;99.90;;;;;;5032798;28;20584;-84
2021/08/06 11:46:15;;;;;;;9.57;1.97;;;21.60;99.90;;;;;;5045243;28;20514;-85
2021/08/06 11:48:47;;;;;;;10.00;2.33;;;21.20;99.90;;;;;;5052440;28;20458;-85
2021/08/06 11:51:14;;;;;;;9.53;2.30;;;21.00;99.90;;;;;;5052457;28;20505;-85
2021/08/06 11:53:42;;;;;;;9.57;2.57;;;20.80;99.90;;;;;;5052845;28;20462;-88
2021/08/06 11:56:14;;;;;;;8.80;1.73;;;20.80;99.90;;;;;;5052327;28;20534;-85
2021/08/06 11:58:42;;;;;;;9.60;1.97;;;20.90;99.90;;;;;;5056245;28;20535;-84
2021/08/06 12:01:16;;;;;;;10.33;1.77;;;21.10;99.90;;;;;;5072427;28;20485;-86
2021/08/06 12:03:44;;;;;;;7.53;1.70;;;21.30;99.90;;;;;;5072822;28;20446;-85
2021/08/06 12:06:11;;;;;;;7.67;1.63;;;21.40;99.90;;;;;;5079355;28;20427;-85
2021/08/06 12:08:38;;;;;;;8.27;1.50;;;21.60;99.90;;;;;;5090890;28;20441;-85
2021/08/06 12:11:17;;;;;;;8.13;1.97;;;21.70;99.90;;;;;;5060477;28;20914;-86
2021/08/06 12:13:50;;;;;;;9.03;2.10;;;22.00;99.90;;;;;;5052085;28;20455;-85
2021/08/06 12:16:19;;;;;;;7.43;1.57;;;22.40;99.90;;;;;;5052178;28;20837;-86
2021/08/06 12:18:50;;;;;;;13.13;1.60;;;22.60;99.90;;;;;;5057817;28;20545;-86
2021/08/06 12:21:19;;;;;;;10.17;2.00;;;23.20;99.90;;;;;;5063421;28;20547;-89
2021/08/06 12:23:48;;;;;;;13.60;1.43;;;24.20;99.90;;;;;;5060266;28;20443;-88
2021/08/06 12:26:20;;;;;;;12.50;1.50;;;24.80;99.90;;;;;;5060806;28;20454;-87
2021/08/06 12:28:49;;;;;;;14.30;1.80;;;25.20;99.90;;;;;;5071155;28;21021;-87
2021/08/06 12:31:20;;;;;;;14.07;1.67;;;25.70;99.90;;;;;;5072561;28;20471;-87
2021/08/06 12:33:49;;;;;;;14.30;1.77;;;25.60;99.90;;;;;;5071791;28;20453;-87
2021/08/06 12:36:19;;;;;;;9.90;1.30;;;26.00;99.90;;;;;;5071928;28;20493;-89
2021/08/06 12:38:47;;;;;;;10.93;1.40;;;25.90;99.90;;;;;;5064121;28;20451;-87
2021/08/06 12:41:31;;;;;;;11.37;1.80;;;25.50;99.90;;;;;;5065156;28;20544;-88
2021/08/06 12:44:18;;;;;;;12.87;2.30;;;25.80;99.90;;;;;;5065749;28;20458;-88
2021/08/06 12:47:00;;;;;;;14.13;1.67;;;26.20;99.90;;;;;;5072271;28;20849;-90
2021/08/06 12:49:29;;;;;;;11.10;1.63;;;26.00;99.90;;;;;;5055016;28;20829;-88
2021/08/06 12:52:02;;;;;;;11.77;1.93;;;25.90;99.90;;;;;;5052173;28;20862;-89
2021/08/06 12:54:42;;;;;;;11.20;1.60;;;26.40;99.90;;;;;;5052018;28;20467;-89
2021/08/06 12:57:22;;;;;;;13.23;1.53;;;26.20;99.90;;;;;;5051864;28;20459;-90
2021/08/06 12:59:49;;;;;;;14.60;1.80;;;26.30;99.90;;;;;;5051924;28;20452;-89
2021/08/06 13:02:22;;;;;;;14.30;1.50;;;26.20;99.90;;;;;;5061659;28;20555;-88
2021/08/06 13:04:50;;;;;;;13.77;1.80;;;25.80;99.90;;;;;;5067064;28;20480;-87
2021/08/06 13:07:28;;;;;;;25.30;1.70;;;25.40;99.90;;;;;;5068800;28;20488;-89
2021/08/06 13:09:56;;;;;;;12.40;1.70;;;25.10;99.90;;;;;;5073913;28;20496;-88
2021/08/06 13:12:24;;;;;;;14.50;1.73;;;25.20;99.90;;;;;;5076962;28;20470;-88
2021/08/06 13:14:52;;;;;;;13.17;1.73;;;25.00;99.90;;;;;;5095092;28;20466;-87
2021/08/06 13:17:21;;;;;;;22.23;1.70;;;25.90;99.90;;;;;;5091923;28;20439;-86